sensor_id;sensor_type;location;lat;lon;timestamp;pressure;altitude;pressure_sealevel;temperature;humidity
70256;BME280;57669;52.624;-1.688;2023-02-08T00:00:14;103147.99;;;1.94;49.40
70256;BME280;57669;52.624;-1.688;2023-02-08T00:02:38;103149.66;;;2.36;49.11
70256;BME280;57669;52.624;-1.688;2023-02-08T00:05:05;103155.18;;;2.41;48.67
70256;BME280;57669;52.624;-1.688;2023-02-08T00:07:29;103152.47;;;2.41;48.37
70256;BME280;57669;52.624;-1.688;2023-02-08T00:09:55;103149.63;;;2.04;50.75
70256;BME280;57669;52.624;-1.688;2023-02-08T00:12:20;103152.29;;;2.21;49.41
70256;BME280;57669;52.624;-1.688;2023-02-08T00:14:45;103159.20;;;1.75;50.72
70256;BME280;57669;52.624;-1.688;2023-02-08T00:17:11;103153.10;;;0.74;52.26
70256;BME280;57669;52.624;-1.688;2023-02-08T00:19:36;103145.07;;;2.47;49.39
70256;BME280;57669;52.624;-1.688;2023-02-08T00:22:01;103149.77;;;2.36;49.00
70256;BME280;57669;52.624;-1.688;2023-02-08T00:24:26;103146.30;;;2.24;49.98
70256;BME280;57669;52.624;-1.688;2023-02-08T00:26:52;103141.14;;;2.32;48.42
70256;BME280;57669;52.624;-1.688;2023-02-08T00:29:18;103139.18;;;2.07;49.73
70256;BME280;57669;52.624;-1.688;2023-02-08T00:31:43;103135.67;;;2.48;47.96
70256;BME280;57669;52.624;-1.688;2023-02-08T00:34:08;103133.01;;;2.01;48.77
70256;BME280;57669;52.624;-1.688;2023-02-08T00:36:34;103126.77;;;1.47;48.88
70256;BME280;57669;52.624;-1.688;2023-02-08T00:38:59;103123.70;;;2.15;48.70
70256;BME280;57669;52.624;-1.688;2023-02-08T00:41:25;103121.40;;;2.20;49.15
70256;BME280;57669;52.624;-1.688;2023-02-08T00:43:50;103119.34;;;1.46;49.00
70256;BME280;57669;52.624;-1.688;2023-02-08T00:46:15;103115.87;;;1.81;50.04
70256;BME280;57669;52.624;-1.688;2023-02-08T00:48:41;103112.45;;;2.09;48.31
70256;BME280;57669;52.624;-1.688;2023-02-08T00:51:08;103105.60;;;1.65;48.23
70256;BME280;57669;52.624;-1.688;2023-02-08T00:53:34;103099.18;;;2.32;48.18
70256;BME280;57669;52.624;-1.688;2023-02-08T00:55:57;103101.36;;;1.83;48.65
70256;BME280;57669;52.624;-1.688;2023-02-08T00:58:22;103097.52;;;2.35;47.52
70256;BME280;57669;52.624;-1.688;2023-02-08T01:00:49;103096.76;;;2.20;47.28
70256;BME280;57669;52.624;-1.688;2023-02-08T01:03:13;103098.72;;;2.46;47.00
70256;BME280;57669;52.624;-1.688;2023-02-08T01:05:39;103099.88;;;1.71;48.29
70256;BME280;57669;52.624;-1.688;2023-02-08T01:08:04;103094.78;;;1.76;48.31
70256;BME280;57669;52.624;-1.688;2023-02-08T01:10:30;103090.04;;;2.04;47.99
70256;BME280;57669;52.624;-1.688;2023-02-08T01:12:55;103082.21;;;1.52;49.76
70256;BME280;57669;52.624;-1.688;2023-02-08T01:15:21;103079.65;;;2.00;48.48
70256;BME280;57669;52.624;-1.688;2023-02-08T01:17:46;103076.40;;;2.08;48.19
70256;BME280;57669;52.624;-1.688;2023-02-08T01:20:12;103074.11;;;2.07;47.48
70256;BME280;57669;52.624;-1.688;2023-02-08T01:22:37;103066.35;;;2.30;47.34
70256;BME280;57669;52.624;-1.688;2023-02-08T01:25:03;103070.59;;;1.85;47.57
70256;BME280;57669;52.624;-1.688;2023-02-08T01:27:29;103069.00;;;1.57;48.47
70256;BME280;57669;52.624;-1.688;2023-02-08T01:29:54;103066.45;;;1.35;47.97
70256;BME280;57669;52.624;-1.688;2023-02-08T01:32:20;103066.59;;;0.14;51.15
70256;BME280;57669;52.624;-1.688;2023-02-08T01:34:45;103065.22;;;1.38;48.34
70256;BME280;57669;52.624;-1.688;2023-02-08T01:37:10;103070.86;;;1.26;48.68
70256;BME280;57669;52.624;-1.688;2023-02-08T01:39:36;103069.66;;;1.80;47.49
70256;BME280;57669;52.624;-1.688;2023-02-08T01:42:01;103069.33;;;1.59;47.34
70256;BME280;57669;52.624;-1.688;2023-02-08T01:46:53;103063.97;;;1.76;48.17
70256;BME280;57669;52.624;-1.688;2023-02-08T01:49:20;103065.49;;;1.91;47.34
70256;BME280;57669;52.624;-1.688;2023-02-08T01:51:47;103071.68;;;1.20;48.26
70256;BME280;57669;52.624;-1.688;2023-02-08T01:54:11;103068.61;;;0.96;48.78
70256;BME280;57669;52.624;-1.688;2023-02-08T01:56:37;103061.40;;;0.82;48.85
70256;BME280;57669;52.624;-1.688;2023-02-08T01:59:05;103066.27;;;1.33;48.63
70256;BME280;57669;52.624;-1.688;2023-02-08T02:01:27;103064.65;;;0.79;49.55
70256;BME280;57669;52.624;-1.688;2023-02-08T02:03:51;103060.85;;;1.02;48.61
70256;BME280;57669;52.624;-1.688;2023-02-08T02:06:20;103057.00;;;1.46;48.37
70256;BME280;57669;52.624;-1.688;2023-02-08T02:08:48;103059.30;;;0.70;49.19
70256;BME280;57669;52.624;-1.688;2023-02-08T02:11:08;103066.91;;;1.24;48.03
70256;BME280;57669;52.624;-1.688;2023-02-08T02:13:36;103065.29;;;1.32;48.32
70256;BME280;57669;52.624;-1.688;2023-02-08T02:15:59;103065.19;;;1.38;47.85
70256;BME280;57669;52.624;-1.688;2023-02-08T02:18:26;103068.77;;;1.49;47.61
70256;BME280;57669;52.624;-1.688;2023-02-08T02:21:05;103068.44;;;1.18;48.10
70256;BME280;57669;52.624;-1.688;2023-02-08T02:23:27;103065.92;;;0.98;47.99
70256;BME280;57669;52.624;-1.688;2023-02-08T02:25:51;103062.01;;;1.08;47.52
70256;BME280;57669;52.624;-1.688;2023-02-08T02:28:22;103058.18;;;1.39;47.19
70256;BME280;57669;52.624;-1.688;2023-02-08T02:33:11;103065.16;;;1.17;47.60
70256;BME280;57669;52.624;-1.688;2023-02-08T02:35:28;103064.13;;;1.38;47.66
70256;BME280;57669;52.624;-1.688;2023-02-08T02:37:56;103060.20;;;1.46;47.23
70256;BME280;57669;52.624;-1.688;2023-02-08T02:40:20;103060.18;;;1.25;47.30
70256;BME280;57669;52.624;-1.688;2023-02-08T02:42:47;103058.07;;;1.06;47.21
70256;BME280;57669;52.624;-1.688;2023-02-08T02:45:12;103059.82;;;1.26;47.09
70256;BME280;57669;52.624;-1.688;2023-02-08T02:47:35;103053.19;;;1.41;46.43
70256;BME280;57669;52.624;-1.688;2023-02-08T02:50:02;103056.12;;;0.77;48.16
70256;BME280;57669;52.624;-1.688;2023-02-08T02:52:25;103051.18;;;0.85;47.63
70256;BME280;57669;52.624;-1.688;2023-02-08T02:54:50;103050.21;;;0.87;47.52
70256;BME280;57669;52.624;-1.688;2023-02-08T02:57:16;103046.96;;;0.71;48.03
70256;BME280;57669;52.624;-1.688;2023-02-08T02:59:38;103049.14;;;0.99;47.64
70256;BME280;57669;52.624;-1.688;2023-02-08T03:02:03;103040.83;;;1.11;47.37
70256;BME280;57669;52.624;-1.688;2023-02-08T03:07:02;103033.35;;;0.82;47.44
70256;BME280;57669;52.624;-1.688;2023-02-08T03:09:28;103031.05;;;0.37;48.54
70256;BME280;57669;52.624;-1.688;2023-02-08T03:11:50;103028.11;;;0.42;48.64
70256;BME280;57669;52.624;-1.688;2023-02-08T03:14:23;103025.73;;;0.04;49.98
70256;BME280;57669;52.624;-1.688;2023-02-08T03:16:48;103027.07;;;-0.13;49.95
70256;BME280;57669;52.624;-1.688;2023-02-08T03:19:06;103031.19;;;0.26;49.35
70256;BME280;57669;52.624;-1.688;2023-02-08T03:21:35;103028.28;;;0.57;49.04
70256;BME280;57669;52.624;-1.688;2023-02-08T03:23:56;103028.57;;;0.70;48.22
70256;BME280;57669;52.624;-1.688;2023-02-08T03:26:25;103029.65;;;0.22;49.23
70256;BME280;57669;52.624;-1.688;2023-02-08T03:28:48;103030.21;;;0.47;49.99
70256;BME280;57669;52.624;-1.688;2023-02-08T03:31:12;103027.56;;;0.03;51.60
70256;BME280;57669;52.624;-1.688;2023-02-08T03:33:38;103026.34;;;0.48;50.66
70256;BME280;57669;52.624;-1.688;2023-02-08T03:36:03;103026.43;;;-0.00;52.20
70256;BME280;57669;52.624;-1.688;2023-02-08T03:38:28;103026.32;;;0.07;53.45
70256;BME280;57669;52.624;-1.688;2023-02-08T03:40:52;103020.49;;;-0.66;54.16
70256;BME280;57669;52.624;-1.688;2023-02-08T03:43:19;103019.32;;;-0.23;53.89
70256;BME280;57669;52.624;-1.688;2023-02-08T03:45:45;103022.13;;;0.18;53.57
70256;BME280;57669;52.624;-1.688;2023-02-08T03:48:08;103023.02;;;0.62;52.78
70256;BME280;57669;52.624;-1.688;2023-02-08T03:50:34;103023.46;;;0.41;53.01
70256;BME280;57669;52.624;-1.688;2023-02-08T03:52:58;103024.19;;;0.90;50.11
70256;BME280;57669;52.624;-1.688;2023-02-08T03:55:26;103015.83;;;0.01;50.69
70256;BME280;57669;52.624;-1.688;2023-02-08T03:57:52;103012.76;;;0.32;51.23
70256;BME280;57669;52.624;-1.688;2023-02-08T04:00:16;103008.27;;;0.69;49.03
70256;BME280;57669;52.624;-1.688;2023-02-08T04:02:42;103014.23;;;0.83;48.17
70256;BME280;57669;52.624;-1.688;2023-02-08T04:05:07;103010.84;;;0.92;47.62
70256;BME280;57669;52.624;-1.688;2023-02-08T04:07:31;103011.44;;;0.94;47.87
70256;BME280;57669;52.624;-1.688;2023-02-08T04:09:56;103008.14;;;0.14;48.61
70256;BME280;57669;52.624;-1.688;2023-02-08T04:12:22;103001.13;;;0.11;49.37
70256;BME280;57669;52.624;-1.688;2023-02-08T04:14:47;102999.26;;;0.38;49.06
70256;BME280;57669;52.624;-1.688;2023-02-08T04:17:13;103002.53;;;-0.34;50.99
70256;BME280;57669;52.624;-1.688;2023-02-08T04:19:38;103003.16;;;0.23;49.25
70256;BME280;57669;52.624;-1.688;2023-02-08T04:22:04;103002.43;;;0.06;49.99
70256;BME280;57669;52.624;-1.688;2023-02-08T04:24:29;103001.30;;;0.71;48.07
70256;BME280;57669;52.624;-1.688;2023-02-08T04:26:55;102994.82;;;-0.46;50.46
70256;BME280;57669;52.624;-1.688;2023-02-08T04:29:21;102995.14;;;0.41;48.99
70256;BME280;57669;52.624;-1.688;2023-02-08T04:31:45;102995.07;;;-0.07;49.41
70256;BME280;57669;52.624;-1.688;2023-02-08T04:34:11;102991.35;;;0.13;49.36
70256;BME280;57669;52.624;-1.688;2023-02-08T04:36:36;102989.56;;;0.44;48.39
70256;BME280;57669;52.624;-1.688;2023-02-08T04:39:02;102990.39;;;-0.37;50.09
70256;BME280;57669;52.624;-1.688;2023-02-08T04:41:27;102989.77;;;-0.42;51.99
70256;BME280;57669;52.624;-1.688;2023-02-08T04:43:53;102987.95;;;-0.68;51.63
70256;BME280;57669;52.624;-1.688;2023-02-08T04:46:18;102983.39;;;-0.46;52.18
70256;BME280;57669;52.624;-1.688;2023-02-08T04:48:44;102980.29;;;0.21;49.61
70256;BME280;57669;52.624;-1.688;2023-02-08T04:51:10;102976.39;;;0.29;49.11
70256;BME280;57669;52.624;-1.688;2023-02-08T04:53:35;102972.17;;;0.13;51.46
70256;BME280;57669;52.624;-1.688;2023-02-08T04:56:01;102969.65;;;-0.25;53.28
70256;BME280;57669;52.624;-1.688;2023-02-08T04:58:27;102964.85;;;0.05;51.07
70256;BME280;57669;52.624;-1.688;2023-02-08T05:00:53;102957.25;;;-0.22;52.08
70256;BME280;57669;52.624;-1.688;2023-02-08T05:03:18;102956.87;;;0.03;51.82
70256;BME280;57669;52.624;-1.688;2023-02-08T05:05:43;102952.75;;;0.21;50.80
70256;BME280;57669;52.624;-1.688;2023-02-08T05:08:09;102947.20;;;0.42;49.70
70256;BME280;57669;52.624;-1.688;2023-02-08T05:10:35;102946.08;;;-0.30;52.78
70256;BME280;57669;52.624;-1.688;2023-02-08T05:13:00;102943.24;;;-0.49;54.61
70256;BME280;57669;52.624;-1.688;2023-02-08T05:15:26;102942.09;;;0.21;52.62
70256;BME280;57669;52.624;-1.688;2023-02-08T05:17:51;102939.90;;;0.01;53.64
70256;BME280;57669;52.624;-1.688;2023-02-08T05:20:17;102931.15;;;-0.19;54.51
70256;BME280;57669;52.624;-1.688;2023-02-08T05:22:42;102924.35;;;-0.29;54.53
70256;BME280;57669;52.624;-1.688;2023-02-08T05:25:08;102923.36;;;-0.28;53.99
70256;BME280;57669;52.624;-1.688;2023-02-08T05:27:34;102922.03;;;0.10;53.36
70256;BME280;57669;52.624;-1.688;2023-02-08T05:29:59;102912.98;;;0.19;53.51
70256;BME280;57669;52.624;-1.688;2023-02-08T05:32:25;102913.93;;;-0.03;53.04
70256;BME280;57669;52.624;-1.688;2023-02-08T05:34:50;102910.23;;;-0.03;52.22
70256;BME280;57669;52.624;-1.688;2023-02-08T05:37:16;102904.11;;;0.13;53.05
70256;BME280;57669;52.624;-1.688;2023-02-08T05:39:41;102892.83;;;-0.01;51.63
70256;BME280;57669;52.624;-1.688;2023-02-08T05:42:07;102893.52;;;-0.17;54.18
70256;BME280;57669;52.624;-1.688;2023-02-08T05:44:32;102890.01;;;-0.19;53.16
70256;BME280;57669;52.624;-1.688;2023-02-08T05:46:58;102883.84;;;0.13;51.80
70256;BME280;57669;52.624;-1.688;2023-02-08T05:49:24;102883.45;;;-0.58;52.63
70256;BME280;57669;52.624;-1.688;2023-02-08T05:51:48;102883.21;;;-0.43;52.84
70256;BME280;57669;52.624;-1.688;2023-02-08T05:54:14;102882.38;;;-0.41;52.82
70256;BME280;57669;52.624;-1.688;2023-02-08T05:56:39;102884.70;;;0.49;50.53
70256;BME280;57669;52.624;-1.688;2023-02-08T05:59:05;102885.85;;;-0.70;53.28
70256;BME280;57669;52.624;-1.688;2023-02-08T06:01:30;102885.57;;;-0.43;52.82
70256;BME280;57669;52.624;-1.688;2023-02-08T06:03:57;102879.16;;;-0.08;51.26
70256;BME280;57669;52.624;-1.688;2023-02-08T06:06:21;102879.67;;;-0.12;51.35
70256;BME280;57669;52.624;-1.688;2023-02-08T06:08:47;102881.23;;;-0.57;52.44
70256;BME280;57669;52.624;-1.688;2023-02-08T06:11:12;102881.04;;;-1.17;54.73
70256;BME280;57669;52.624;-1.688;2023-02-08T06:13:37;102881.42;;;-0.73;55.22
70256;BME280;57669;52.624;-1.688;2023-02-08T06:16:04;102878.95;;;-0.96;56.35
70256;BME280;57669;52.624;-1.688;2023-02-08T06:18:28;102879.60;;;-1.31;56.71
70256;BME280;57669;52.624;-1.688;2023-02-08T06:20:54;102873.08;;;-1.11;56.69
70256;BME280;57669;52.624;-1.688;2023-02-08T06:23:20;102871.98;;;-1.82;60.09
70256;BME280;57669;52.624;-1.688;2023-02-08T06:25:45;102866.71;;;-1.79;60.51
70256;BME280;57669;52.624;-1.688;2023-02-08T06:28:10;102866.70;;;-1.91;61.34
70256;BME280;57669;52.624;-1.688;2023-02-08T06:30:36;102871.68;;;-1.80;61.43
70256;BME280;57669;52.624;-1.688;2023-02-08T06:33:01;102873.38;;;-3.02;66.12
70256;BME280;57669;52.624;-1.688;2023-02-08T06:35:26;102870.40;;;-2.05;62.34
70256;BME280;57669;52.624;-1.688;2023-02-08T06:37:52;102870.98;;;-1.11;60.82
70256;BME280;57669;52.624;-1.688;2023-02-08T06:40:18;102874.03;;;-1.94;63.19
70256;BME280;57669;52.624;-1.688;2023-02-08T06:42:43;102875.78;;;-1.81;62.36
70256;BME280;57669;52.624;-1.688;2023-02-08T06:45:09;102886.84;;;-1.78;62.32
70256;BME280;57669;52.624;-1.688;2023-02-08T06:47:35;102892.33;;;-2.03;62.72
70256;BME280;57669;52.624;-1.688;2023-02-08T06:50:00;102894.00;;;-2.10;63.98
70256;BME280;57669;52.624;-1.688;2023-02-08T06:52:25;102895.05;;;-1.73;63.25
70256;BME280;57669;52.624;-1.688;2023-02-08T06:54:51;102897.91;;;-1.82;62.74
70256;BME280;57669;52.624;-1.688;2023-02-08T06:57:16;102893.36;;;-1.73;62.39
70256;BME280;57669;52.624;-1.688;2023-02-08T06:59:41;102891.81;;;-1.89;62.86
70256;BME280;57669;52.624;-1.688;2023-02-08T07:02:10;102894.16;;;-1.21;61.36
70256;BME280;57669;52.624;-1.688;2023-02-08T07:04:31;102898.37;;;-1.03;60.95
70256;BME280;57669;52.624;-1.688;2023-02-08T07:06:56;102907.05;;;-1.82;62.83
70256;BME280;57669;52.624;-1.688;2023-02-08T07:09:22;102907.63;;;-2.75;65.48
70256;BME280;57669;52.624;-1.688;2023-02-08T07:11:48;102915.78;;;-2.52;65.34
70256;BME280;57669;52.624;-1.688;2023-02-08T07:14:14;102918.68;;;-2.14;64.65
70256;BME280;57669;52.624;-1.688;2023-02-08T07:16:40;102927.01;;;-2.28;65.19
70256;BME280;57669;52.624;-1.688;2023-02-08T07:19:05;102933.33;;;-2.03;63.60
70256;BME280;57669;52.624;-1.688;2023-02-08T07:21:30;102935.54;;;-1.66;62.39
70256;BME280;57669;52.624;-1.688;2023-02-08T07:23:56;102939.77;;;-1.99;62.66
70256;BME280;57669;52.624;-1.688;2023-02-08T07:26:21;102940.18;;;-1.62;62.28
70256;BME280;57669;52.624;-1.688;2023-02-08T07:28:47;102941.96;;;-1.21;60.36
70256;BME280;57669;52.624;-1.688;2023-02-08T07:31:14;102945.12;;;-1.81;62.75
70256;BME280;57669;52.624;-1.688;2023-02-08T07:33:38;102938.70;;;-1.04;60.82
70256;BME280;57669;52.624;-1.688;2023-02-08T07:36:04;102933.41;;;-1.46;61.25
70256;BME280;57669;52.624;-1.688;2023-02-08T07:38:29;102932.49;;;-1.02;60.71
70256;BME280;57669;52.624;-1.688;2023-02-08T07:41:00;102936.63;;;-2.02;62.46
70256;BME280;57669;52.624;-1.688;2023-02-08T07:43:21;102937.46;;;-1.36;60.76
70256;BME280;57669;52.624;-1.688;2023-02-08T07:45:45;102943.93;;;-0.73;59.81
70256;BME280;57669;52.624;-1.688;2023-02-08T07:48:11;102940.27;;;-1.17;60.34
70256;BME280;57669;52.624;-1.688;2023-02-08T07:50:36;102941.94;;;-1.23;59.18
70256;BME280;57669;52.624;-1.688;2023-02-08T07:53:02;102944.94;;;-1.35;59.92
70256;BME280;57669;52.624;-1.688;2023-02-08T07:55:27;102943.92;;;-0.98;58.96
70256;BME280;57669;52.624;-1.688;2023-02-08T07:57:54;102947.15;;;-0.37;57.44
70256;BME280;57669;52.624;-1.688;2023-02-08T08:00:19;102952.35;;;-0.64;56.41
70256;BME280;57669;52.624;-1.688;2023-02-08T08:02:44;102955.71;;;-0.61;56.93
70256;BME280;57669;52.624;-1.688;2023-02-08T08:05:10;102959.48;;;-0.43;56.27
70256;BME280;57669;52.624;-1.688;2023-02-08T08:07:36;102960.06;;;-0.31;55.93
70256;BME280;57669;52.624;-1.688;2023-02-08T08:10:01;102954.42;;;-0.92;57.00
70256;BME280;57669;52.624;-1.688;2023-02-08T08:12:26;102963.35;;;-0.51;56.59
70256;BME280;57669;52.624;-1.688;2023-02-08T08:14:51;102965.56;;;-0.18;55.16
70256;BME280;57669;52.624;-1.688;2023-02-08T08:17:17;102965.06;;;-0.21;54.94
70256;BME280;57669;52.624;-1.688;2023-02-08T08:19:43;102967.12;;;-0.15;55.10
70256;BME280;57669;52.624;-1.688;2023-02-08T08:22:08;102968.49;;;0.23;54.16
70256;BME280;57669;52.624;-1.688;2023-02-08T08:24:33;102967.66;;;-0.02;54.34
70256;BME280;57669;52.624;-1.688;2023-02-08T08:27:00;102967.33;;;0.02;54.19
70256;BME280;57669;52.624;-1.688;2023-02-08T08:29:24;102967.32;;;-0.10;53.49
70256;BME280;57669;52.624;-1.688;2023-02-08T08:31:49;102961.78;;;0.24;53.92
70256;BME280;57669;52.624;-1.688;2023-02-08T08:34:15;102958.09;;;0.03;54.16
70256;BME280;57669;52.624;-1.688;2023-02-08T08:36:40;102962.15;;;0.05;55.03
70256;BME280;57669;52.624;-1.688;2023-02-08T08:39:06;102972.11;;;0.24;54.41
70256;BME280;57669;52.624;-1.688;2023-02-08T08:41:31;102974.42;;;0.10;54.70
70256;BME280;57669;52.624;-1.688;2023-02-08T08:43:57;102971.48;;;0.06;55.18
70256;BME280;57669;52.624;-1.688;2023-02-08T08:46:23;102966.51;;;-0.67;57.46
70256;BME280;57669;52.624;-1.688;2023-02-08T08:48:48;102964.06;;;0.10;56.53
70256;BME280;57669;52.624;-1.688;2023-02-08T08:51:14;102956.02;;;0.71;55.18
70256;BME280;57669;52.624;-1.688;2023-02-08T08:53:39;102947.74;;;0.20;56.41
70256;BME280;57669;52.624;-1.688;2023-02-08T08:56:05;102940.83;;;-0.42;57.32
70256;BME280;57669;52.624;-1.688;2023-02-08T08:58:30;102932.46;;;-0.10;57.48
70256;BME280;57669;52.624;-1.688;2023-02-08T09:00:56;102930.46;;;-0.16;57.93
70256;BME280;57669;52.624;-1.688;2023-02-08T09:03:22;102926.05;;;-0.26;59.82
70256;BME280;57669;52.624;-1.688;2023-02-08T09:05:47;102919.18;;;-0.04;59.83
70256;BME280;57669;52.624;-1.688;2023-02-08T09:08:13;102916.78;;;-0.27;60.14
70256;BME280;57669;52.624;-1.688;2023-02-08T09:10:39;102909.22;;;-0.82;62.16
70256;BME280;57669;52.624;-1.688;2023-02-08T09:13:04;102904.31;;;-0.40;63.68
70256;BME280;57669;52.624;-1.688;2023-02-08T09:15:30;102895.56;;;-1.20;65.11
70256;BME280;57669;52.624;-1.688;2023-02-08T09:17:55;102890.95;;;-1.42;67.81
70256;BME280;57669;52.624;-1.688;2023-02-08T09:20:21;102880.71;;;-1.13;65.56
70256;BME280;57669;52.624;-1.688;2023-02-08T09:22:46;102873.74;;;-0.81;65.93
70256;BME280;57669;52.624;-1.688;2023-02-08T09:25:12;102873.15;;;-1.69;68.06
70256;BME280;57669;52.624;-1.688;2023-02-08T09:27:38;102855.20;;;-1.34;67.15
70256;BME280;57669;52.624;-1.688;2023-02-08T09:30:03;102848.13;;;-1.06;67.25
70256;BME280;57669;52.624;-1.688;2023-02-08T09:32:30;102841.61;;;-1.29;67.97
70256;BME280;57669;52.624;-1.688;2023-02-08T09:34:54;102834.06;;;-1.48;68.98
70256;BME280;57669;52.624;-1.688;2023-02-08T09:37:19;102833.32;;;-2.31;70.63
70256;BME280;57669;52.624;-1.688;2023-02-08T09:39:44;102838.29;;;-2.15;72.95
70256;BME280;57669;52.624;-1.688;2023-02-08T09:42:22;102836.54;;;-2.00;71.94
70256;BME280;57669;52.624;-1.688;2023-02-08T09:44:44;102827.43;;;-1.32;70.27
70256;BME280;57669;52.624;-1.688;2023-02-08T09:47:08;102821.12;;;-0.96;69.04
70256;BME280;57669;52.624;-1.688;2023-02-08T09:49:29;102823.85;;;-1.42;69.69
70256;BME280;57669;52.624;-1.688;2023-02-08T09:51:55;102819.76;;;-1.02;69.90
70256;BME280;57669;52.624;-1.688;2023-02-08T09:54:21;102819.65;;;-1.30;70.54
70256;BME280;57669;52.624;-1.688;2023-02-08T09:56:44;102827.69;;;-0.83;68.86
70256;BME280;57669;52.624;-1.688;2023-02-08T09:59:13;102831.31;;;-1.03;68.51
70256;BME280;57669;52.624;-1.688;2023-02-08T10:01:35;102828.53;;;-0.61;67.86
70256;BME280;57669;52.624;-1.688;2023-02-08T10:04:05;102826.77;;;-0.42;67.52
70256;BME280;57669;52.624;-1.688;2023-02-08T10:06:25;102826.71;;;-1.36;68.33
70256;BME280;57669;52.624;-1.688;2023-02-08T10:08:51;102833.30;;;-0.69;68.19
70256;BME280;57669;52.624;-1.688;2023-02-08T10:11:30;102834.15;;;-0.72;68.52
70256;BME280;57669;52.624;-1.688;2023-02-08T10:13:54;102837.87;;;0.21;65.95
70256;BME280;57669;52.624;-1.688;2023-02-08T10:16:13;102835.49;;;-0.29;66.44
70256;BME280;57669;52.624;-1.688;2023-02-08T10:18:40;102829.51;;;0.38;65.66
70256;BME280;57669;52.624;-1.688;2023-02-08T10:21:12;102822.87;;;0.35;64.77
70256;BME280;57669;52.624;-1.688;2023-02-08T10:23:35;102819.46;;;0.67;64.67
70256;BME280;57669;52.624;-1.688;2023-02-08T10:26:05;102819.05;;;0.57;65.01
70256;BME280;57669;52.624;-1.688;2023-02-08T10:28:27;102819.29;;;-0.24;66.01
70256;BME280;57669;52.624;-1.688;2023-02-08T10:30:44;102822.16;;;-0.22;65.90
70256;BME280;57669;52.624;-1.688;2023-02-08T10:33:11;102822.99;;;0.89;64.70
70256;BME280;57669;52.624;-1.688;2023-02-08T10:35:32;102824.49;;;0.83;66.00
70256;BME280;57669;52.624;-1.688;2023-02-08T10:37:57;102826.88;;;0.05;67.58
70256;BME280;57669;52.624;-1.688;2023-02-08T10:40:28;102822.53;;;0.55;65.03
70256;BME280;57669;52.624;-1.688;2023-02-08T10:42:50;102819.77;;;1.01;64.40
70256;BME280;57669;52.624;-1.688;2023-02-08T10:45:17;102817.23;;;0.86;64.53
70256;BME280;57669;52.624;-1.688;2023-02-08T10:47:42;102805.52;;;1.35;63.32
70256;BME280;57669;52.624;-1.688;2023-02-08T10:50:10;102807.31;;;1.24;61.41
70256;BME280;57669;52.624;-1.688;2023-02-08T10:52:29;102805.42;;;0.80;62.30
70256;BME280;57669;52.624;-1.688;2023-02-08T10:54:56;102807.59;;;1.24;61.86
70256;BME280;57669;52.624;-1.688;2023-02-08T10:57:23;102800.58;;;1.02;61.86
70256;BME280;57669;52.624;-1.688;2023-02-08T10:59:47;102798.29;;;1.63;61.26
70256;BME280;57669;52.624;-1.688;2023-02-08T11:02:20;102793.35;;;1.78;61.06
70256;BME280;57669;52.624;-1.688;2023-02-08T11:09:29;102793.76;;;1.88;60.65
70256;BME280;57669;52.624;-1.688;2023-02-08T11:11:53;102789.99;;;1.60;60.41
70256;BME280;57669;52.624;-1.688;2023-02-08T11:14:22;102785.62;;;2.49;58.60
70256;BME280;57669;52.624;-1.688;2023-02-08T11:16:48;102788.03;;;2.44;58.35
70256;BME280;57669;52.624;-1.688;2023-02-08T11:19:20;102789.36;;;2.10;58.28
70256;BME280;57669;52.624;-1.688;2023-02-08T11:21:36;102788.53;;;2.57;57.92
70256;BME280;57669;52.624;-1.688;2023-02-08T11:24:04;102783.08;;;2.90;57.65
70256;BME280;57669;52.624;-1.688;2023-02-08T11:26:32;102775.68;;;2.70;57.34
70256;BME280;57669;52.624;-1.688;2023-02-08T11:28:59;102773.72;;;3.45;55.99
70256;BME280;57669;52.624;-1.688;2023-02-08T11:31:18;102768.63;;;2.88;56.26
70256;BME280;57669;52.624;-1.688;2023-02-08T11:36:10;102768.87;;;3.21;53.65
70256;BME280;57669;52.624;-1.688;2023-02-08T11:38:34;102770.68;;;3.98;52.74
70256;BME280;57669;52.624;-1.688;2023-02-08T11:40:59;102762.96;;;3.15;52.43
70256;BME280;57669;52.624;-1.688;2023-02-08T11:43:26;102754.41;;;3.80;51.03
70256;BME280;57669;52.624;-1.688;2023-02-08T11:45:49;102747.23;;;3.51;50.37
70256;BME280;57669;52.624;-1.688;2023-02-08T11:48:21;102745.67;;;3.61;49.89
70256;BME280;57669;52.624;-1.688;2023-02-08T11:50:40;102746.17;;;3.54;49.91
70256;BME280;57669;52.624;-1.688;2023-02-08T11:53:06;102744.68;;;3.57;48.94
70256;BME280;57669;52.624;-1.688;2023-02-08T11:55:32;102731.64;;;3.17;49.92
70256;BME280;57669;52.624;-1.688;2023-02-08T11:57:58;102727.32;;;4.40;48.57
70256;BME280;57669;52.624;-1.688;2023-02-08T12:00:22;102724.74;;;3.65;48.62
70256;BME280;57669;52.624;-1.688;2023-02-08T12:02:46;102720.50;;;3.93;48.16
70256;BME280;57669;52.624;-1.688;2023-02-08T12:05:13;102719.98;;;4.03;47.12
70256;BME280;57669;52.624;-1.688;2023-02-08T12:07:45;102717.25;;;3.89;47.36
70256;BME280;57669;52.624;-1.688;2023-02-08T12:12:36;102707.42;;;4.34;46.91
70256;BME280;57669;52.624;-1.688;2023-02-08T12:15:00;102702.22;;;4.71;46.23
70256;BME280;57669;52.624;-1.688;2023-02-08T12:17:32;102694.76;;;4.57;45.67
70256;BME280;57669;52.624;-1.688;2023-02-08T12:22:11;102689.99;;;4.43;45.43
70256;BME280;57669;52.624;-1.688;2023-02-08T12:24:41;102688.11;;;4.25;45.45
70256;BME280;57669;52.624;-1.688;2023-02-08T12:27:10;102690.37;;;5.42;43.89
70256;BME280;57669;52.624;-1.688;2023-02-08T12:29:37;102686.92;;;4.75;44.77
70256;BME280;57669;52.624;-1.688;2023-02-08T12:32:01;102681.00;;;5.15;43.44
70256;BME280;57669;52.624;-1.688;2023-02-08T12:34:20;102671.56;;;5.22;43.49
70256;BME280;57669;52.624;-1.688;2023-02-08T12:36:54;102661.11;;;6.74;40.37
70256;BME280;57669;52.624;-1.688;2023-02-08T12:39:20;102657.05;;;6.83;39.46
70256;BME280;57669;52.624;-1.688;2023-02-08T12:41:37;102655.53;;;6.55;39.50
70256;BME280;57669;52.624;-1.688;2023-02-08T12:44:04;102652.72;;;6.70;39.00
70256;BME280;57669;52.624;-1.688;2023-02-08T12:49:05;102652.76;;;5.92;40.19
70256;BME280;57669;52.624;-1.688;2023-02-08T12:51:20;102639.14;;;7.81;36.89
70256;BME280;57669;52.624;-1.688;2023-02-08T12:53:42;102639.49;;;8.03;35.49
70256;BME280;57669;52.624;-1.688;2023-02-08T12:56:09;102636.54;;;8.68;34.57